sensor_id;sensor_type;location;lat;lon;timestamp;temperature;humidity
25550;DHT22;13444;50.562;7.262;2023-03-01T00:01:17;-1.50;99.90
25550;DHT22;13444;50.562;7.262;2023-03-01T00:03:43;-1.50;99.90
25550;DHT22;13444;50.562;7.262;2023-03-01T00:06:09;-1.50;99.90
25550;DHT22;13444;50.562;7.262;2023-03-01T00:08:35;-1.60;99.90
25550;DHT22;13444;50.562;7.262;2023-03-01T00:11:15;-1.60;99.90
25550;DHT22;13444;50.562;7.262;2023-03-01T00:13:41;-1.50;99.90
25550;DHT22;13444;50.562;7.262;2023-03-01T00:16:10;-1.60;99.90
25550;DHT22;13444;50.562;7.262;2023-03-01T00:18:36;-1.60;99.90
25550;DHT22;13444;50.562;7.262;2023-03-01T00:21:02;-1.70;99.90
25550;DHT22;13444;50.562;7.262;2023-03-01T00:23:28;-1.70;99.90
25550;DHT22;13444;50.562;7.262;2023-03-01T00:25:54;-1.70;99.90
25550;DHT22;13444;50.562;7.262;2023-03-01T00:28:20;-1.70;99.90
25550;DHT22;13444;50.562;7.262;2023-03-01T00:30:46;-1.80;99.90
25550;DHT22;13444;50.562;7.262;2023-03-01T00:33:12;-1.80;99.90
25550;DHT22;13444;50.562;7.262;2023-03-01T00:35:38;-1.80;99.90
25550;DHT22;13444;50.562;7.262;2023-03-01T00:38:04;-1.90;99.90
25550;DHT22;13444;50.562;7.262;2023-03-01T00:40:32;-1.90;99.90
25550;DHT22;13444;50.562;7.262;2023-03-01T00:42:58;-1.90;99.90
25550;DHT22;13444;50.562;7.262;2023-03-01T00:45:23;-1.90;99.90
25550;DHT22;13444;50.562;7.262;2023-03-01T00:47:50;-1.90;99.90
25550;DHT22;13444;50.562;7.262;2023-03-01T00:50:16;-2.00;99.90
25550;DHT22;13444;50.562;7.262;2023-03-01T00:52:41;-2.00;99.90
25550;DHT22;13444;50.562;7.262;2023-03-01T00:55:07;-2.00;99.90
25550;DHT22;13444;50.562;7.262;2023-03-01T00:57:33;-2.00;99.90
25550;DHT22;13444;50.562;7.262;2023-03-01T00:59:59;-2.10;99.90
25550;DHT22;13444;50.562;7.262;2023-03-01T01:02:24;-2.10;99.90
25550;DHT22;13444;50.562;7.262;2023-03-01T01:04:50;-2.10;99.90
25550;DHT22;13444;50.562;7.262;2023-03-01T01:07:16;-2.10;99.90
25550;DHT22;13444;50.562;7.262;2023-03-01T01:09:41;-2.10;99.90
25550;DHT22;13444;50.562;7.262;2023-03-01T01:12:07;-2.20;99.90
25550;DHT22;13444;50.562;7.262;2023-03-01T01:14:34;-2.20;99.90
25550;DHT22;13444;50.562;7.262;2023-03-01T01:16:59;-2.20;99.90
25550;DHT22;13444;50.562;7.262;2023-03-01T01:19:26;-2.20;99.90
25550;DHT22;13444;50.562;7.262;2023-03-01T01:21:51;-2.20;99.90
25550;DHT22;13444;50.562;7.262;2023-03-01T01:24:17;-2.20;99.90
25550;DHT22;13444;50.562;7.262;2023-03-01T01:26:43;-2.20;99.90
25550;DHT22;13444;50.562;7.262;2023-03-01T01:29:09;-2.20;99.90
25550;DHT22;13444;50.562;7.262;2023-03-01T01:31:37;-2.30;99.90
25550;DHT22;13444;50.562;7.262;2023-03-01T01:34:05;-2.30;99.90
25550;DHT22;13444;50.562;7.262;2023-03-01T01:36:32;-2.40;99.90
25550;DHT22;13444;50.562;7.262;2023-03-01T01:38:58;-2.40;99.90
25550;DHT22;13444;50.562;7.262;2023-03-01T01:41:25;-2.50;99.90
25550;DHT22;13444;50.562;7.262;2023-03-01T01:44:18;-2.50;99.90
25550;DHT22;13444;50.562;7.262;2023-03-01T01:51:47;-2.50;99.90
25550;DHT22;13444;50.562;7.262;2023-03-01T01:54:37;-2.50;99.90
25550;DHT22;13444;50.562;7.262;2023-03-01T01:57:07;-2.60;99.90
25550;DHT22;13444;50.562;7.262;2023-03-01T01:59:34;-2.60;99.90
25550;DHT22;13444;50.562;7.262;2023-03-01T02:02:02;-2.60;99.90
25550;DHT22;13444;50.562;7.262;2023-03-01T02:04:29;-2.60;99.90
25550;DHT22;13444;50.562;7.262;2023-03-01T02:07:03;-2.60;99.90
25550;DHT22;13444;50.562;7.262;2023-03-01T02:09:31;-2.70;99.90
25550;DHT22;13444;50.562;7.262;2023-03-01T02:11:57;-2.70;99.90
25550;DHT22;13444;50.562;7.262;2023-03-01T02:14:23;-2.70;99.90
25550;DHT22;13444;50.562;7.262;2023-03-01T02:16:49;-2.70;99.90
25550;DHT22;13444;50.562;7.262;2023-03-01T02:19:35;-2.60;99.90
25550;DHT22;13444;50.562;7.262;2023-03-01T02:22:24;-2.60;99.90
25550;DHT22;13444;50.562;7.262;2023-03-01T02:28:00;-2.70;99.90
25550;DHT22;13444;50.562;7.262;2023-03-01T02:30:24;-2.70;99.90
25550;DHT22;13444;50.562;7.262;2023-03-01T02:32:52;-2.80;99.90
25550;DHT22;13444;50.562;7.262;2023-03-01T02:35:18;-2.80;99.90
25550;DHT22;13444;50.562;7.262;2023-03-01T02:37:44;-2.80;99.90
25550;DHT22;13444;50.562;7.262;2023-03-01T02:40:16;-2.80;99.90
25550;DHT22;13444;50.562;7.262;2023-03-01T02:42:49;-2.80;99.90
25550;DHT22;13444;50.562;7.262;2023-03-01T02:45:16;-2.80;99.90
25550;DHT22;13444;50.562;7.262;2023-03-01T02:47:41;-2.90;99.90
25550;DHT22;13444;50.562;7.262;2023-03-01T02:53:10;-2.90;99.90
25550;DHT22;13444;50.562;7.262;2023-03-01T02:55:36;-3.00;99.90
25550;DHT22;13444;50.562;7.262;2023-03-01T02:58:02;-3.00;99.90
25550;DHT22;13444;50.562;7.262;2023-03-01T03:00:31;-3.00;99.90
25550;DHT22;13444;50.562;7.262;2023-03-01T03:02:59;-3.00;99.90
25550;DHT22;13444;50.562;7.262;2023-03-01T03:05:30;-3.00;99.90
25550;DHT22;13444;50.562;7.262;2023-03-01T03:07:56;-3.10;99.90
25550;DHT22;13444;50.562;7.262;2023-03-01T03:10:26;-3.10;99.90
25550;DHT22;13444;50.562;7.262;2023-03-01T03:12:57;-3.10;99.90
25550;DHT22;13444;50.562;7.262;2023-03-01T03:15:24;-3.10;99.90
25550;DHT22;13444;50.562;7.262;2023-03-01T03:17:51;-3.10;99.90
25550;DHT22;13444;50.562;7.262;2023-03-01T03:20:19;-3.10;99.90
25550;DHT22;13444;50.562;7.262;2023-03-01T03:22:46;-3.20;99.90
25550;DHT22;13444;50.562;7.262;2023-03-01T03:25:12;-3.20;99.90
25550;DHT22;13444;50.562;7.262;2023-03-01T03:27:40;-3.20;99.90
25550;DHT22;13444;50.562;7.262;2023-03-01T03:30:07;-3.20;99.90
25550;DHT22;13444;50.562;7.262;2023-03-01T03:32:35;-3.20;99.90
25550;DHT22;13444;50.562;7.262;2023-03-01T03:35:01;-3.20;99.90
25550;DHT22;13444;50.562;7.262;2023-03-01T03:37:27;-3.20;99.90
25550;DHT22;13444;50.562;7.262;2023-03-01T03:40:18;-3.20;99.90
25550;DHT22;13444;50.562;7.262;2023-03-01T03:42:44;-3.30;99.90
25550;DHT22;13444;50.562;7.262;2023-03-01T03:45:09;-3.30;99.90
25550;DHT22;13444;50.562;7.262;2023-03-01T03:47:35;-3.30;99.90
25550;DHT22;13444;50.562;7.262;2023-03-01T03:50:00;-3.40;99.90
25550;DHT22;13444;50.562;7.262;2023-03-01T03:52:26;-3.40;99.90
25550;DHT22;13444;50.562;7.262;2023-03-01T03:54:51;-3.50;99.90
25550;DHT22;13444;50.562;7.262;2023-03-01T03:57:17;-3.50;99.90
25550;DHT22;13444;50.562;7.262;2023-03-01T03:59:42;-3.60;99.90
25550;DHT22;13444;50.562;7.262;2023-03-01T04:02:08;-3.50;99.90
25550;DHT22;13444;50.562;7.262;2023-03-01T04:04:34;-3.60;99.90
25550;DHT22;13444;50.562;7.262;2023-03-01T04:06:59;-3.60;99.90
25550;DHT22;13444;50.562;7.262;2023-03-01T04:09:25;-3.60;99.90
25550;DHT22;13444;50.562;7.262;2023-03-01T04:11:50;-3.60;99.90
25550;DHT22;13444;50.562;7.262;2023-03-01T04:14:16;-3.60;99.90
25550;DHT22;13444;50.562;7.262;2023-03-01T04:16:41;-3.60;99.90
25550;DHT22;13444;50.562;7.262;2023-03-01T04:19:07;-3.50;99.90
25550;DHT22;13444;50.562;7.262;2023-03-01T04:21:34;-3.50;99.90
25550;DHT22;13444;50.562;7.262;2023-03-01T04:24:01;-3.50;99.90
25550;DHT22;13444;50.562;7.262;2023-03-01T04:26:29;-3.60;99.90
25550;DHT22;13444;50.562;7.262;2023-03-01T04:28:54;-3.60;99.90
25550;DHT22;13444;50.562;7.262;2023-03-01T04:31:20;-3.60;99.90
25550;DHT22;13444;50.562;7.262;2023-03-01T04:33:51;-3.70;99.90
25550;DHT22;13444;50.562;7.262;2023-03-01T04:36:17;-3.70;99.90
25550;DHT22;13444;50.562;7.262;2023-03-01T04:38:43;-3.70;99.90
25550;DHT22;13444;50.562;7.262;2023-03-01T04:41:13;-3.60;99.90
25550;DHT22;13444;50.562;7.262;2023-03-01T04:43:39;-3.70;99.90
25550;DHT22;13444;50.562;7.262;2023-03-01T04:46:06;-3.70;99.90
25550;DHT22;13444;50.562;7.262;2023-03-01T04:48:35;-3.80;99.90
25550;DHT22;13444;50.562;7.262;2023-03-01T04:51:01;-3.80;99.90
25550;DHT22;13444;50.562;7.262;2023-03-01T04:53:27;-3.90;99.90
25550;DHT22;13444;50.562;7.262;2023-03-01T04:55:54;-3.90;99.90
25550;DHT22;13444;50.562;7.262;2023-03-01T04:58:20;-3.90;99.90
25550;DHT22;13444;50.562;7.262;2023-03-01T05:00:46;-3.90;99.90
25550;DHT22;13444;50.562;7.262;2023-03-01T05:03:11;-4.00;99.90
25550;DHT22;13444;50.562;7.262;2023-03-01T05:05:38;-4.00;99.90
25550;DHT22;13444;50.562;7.262;2023-03-01T05:08:06;-4.00;99.90
25550;DHT22;13444;50.562;7.262;2023-03-01T05:10:34;-4.00;99.90
25550;DHT22;13444;50.562;7.262;2023-03-01T05:13:01;-3.90;99.90
25550;DHT22;13444;50.562;7.262;2023-03-01T05:15:29;-4.00;99.90
25550;DHT22;13444;50.562;7.262;2023-03-01T05:17:56;-4.00;99.90
25550;DHT22;13444;50.562;7.262;2023-03-01T05:20:24;-4.00;99.90
25550;DHT22;13444;50.562;7.262;2023-03-01T05:22:55;-4.00;99.90
25550;DHT22;13444;50.562;7.262;2023-03-01T05:25:20;-4.00;99.90
25550;DHT22;13444;50.562;7.262;2023-03-01T05:27:46;-4.00;99.90
25550;DHT22;13444;50.562;7.262;2023-03-01T05:30:12;-4.00;99.90
25550;DHT22;13444;50.562;7.262;2023-03-01T05:32:47;-4.00;99.90
25550;DHT22;13444;50.562;7.262;2023-03-01T05:35:14;-4.00;99.90
25550;DHT22;13444;50.562;7.262;2023-03-01T05:37:42;-4.00;99.90
25550;DHT22;13444;50.562;7.262;2023-03-01T05:40:10;-4.00;99.90
25550;DHT22;13444;50.562;7.262;2023-03-01T05:42:42;-4.00;99.90
25550;DHT22;13444;50.562;7.262;2023-03-01T05:45:08;-4.00;99.90
25550;DHT22;13444;50.562;7.262;2023-03-01T05:47:35;-4.10;99.90
25550;DHT22;13444;50.562;7.262;2023-03-01T05:50:01;-4.10;99.90
25550;DHT22;13444;50.562;7.262;2023-03-01T05:52:26;-4.10;99.90
25550;DHT22;13444;50.562;7.262;2023-03-01T05:54:52;-4.10;99.90
25550;DHT22;13444;50.562;7.262;2023-03-01T05:57:17;-4.10;99.90
25550;DHT22;13444;50.562;7.262;2023-03-01T05:59:43;-4.10;99.90
25550;DHT22;13444;50.562;7.262;2023-03-01T06:02:08;-4.10;99.90
25550;DHT22;13444;50.562;7.262;2023-03-01T06:04:34;-4.20;99.90
25550;DHT22;13444;50.562;7.262;2023-03-01T06:06:59;-4.10;99.90
25550;DHT22;13444;50.562;7.262;2023-03-01T06:09:25;-4.10;99.90
25550;DHT22;13444;50.562;7.262;2023-03-01T06:11:51;-4.20;99.90
25550;DHT22;13444;50.562;7.262;2023-03-01T06:14:16;-4.20;99.90
25550;DHT22;13444;50.562;7.262;2023-03-01T06:16:42;-4.20;99.90
25550;DHT22;13444;50.562;7.262;2023-03-01T06:19:07;-4.30;99.90
25550;DHT22;13444;50.562;7.262;2023-03-01T06:21:33;-4.30;99.90
25550;DHT22;13444;50.562;7.262;2023-03-01T06:23:58;-4.30;99.90
25550;DHT22;13444;50.562;7.262;2023-03-01T06:26:24;-4.40;99.90
25550;DHT22;13444;50.562;7.262;2023-03-01T06:28:49;-4.30;99.90
25550;DHT22;13444;50.562;7.262;2023-03-01T06:31:15;-4.30;99.90
25550;DHT22;13444;50.562;7.262;2023-03-01T06:33:41;-4.30;99.90
25550;DHT22;13444;50.562;7.262;2023-03-01T06:36:07;-4.40;99.90
25550;DHT22;13444;50.562;7.262;2023-03-01T06:38:33;-4.30;99.90
25550;DHT22;13444;50.562;7.262;2023-03-01T06:40:58;-4.30;99.90
25550;DHT22;13444;50.562;7.262;2023-03-01T06:43:24;-4.30;99.90
25550;DHT22;13444;50.562;7.262;2023-03-01T06:45:50;-4.30;99.90
25550;DHT22;13444;50.562;7.262;2023-03-01T06:48:16;-4.30;99.90
25550;DHT22;13444;50.562;7.262;2023-03-01T06:50:41;-4.30;99.90
25550;DHT22;13444;50.562;7.262;2023-03-01T06:53:07;-4.30;99.90
25550;DHT22;13444;50.562;7.262;2023-03-01T06:55:33;-4.20;99.90
25550;DHT22;13444;50.562;7.262;2023-03-01T06:58:00;-4.20;99.90
25550;DHT22;13444;50.562;7.262;2023-03-01T07:00:27;-4.20;99.90
25550;DHT22;13444;50.562;7.262;2023-03-01T07:02:53;-4.20;99.90
25550;DHT22;13444;50.562;7.262;2023-03-01T07:05:19;-4.20;99.90
25550;DHT22;13444;50.562;7.262;2023-03-01T07:07:45;-4.20;99.90
25550;DHT22;13444;50.562;7.262;2023-03-01T07:10:11;-4.20;99.90
25550;DHT22;13444;50.562;7.262;2023-03-01T07:12:37;-4.10;99.90
25550;DHT22;13444;50.562;7.262;2023-03-01T07:15:03;-4.10;99.90
25550;DHT22;13444;50.562;7.262;2023-03-01T07:17:29;-4.20;99.90
25550;DHT22;13444;50.562;7.262;2023-03-01T07:19:54;-4.10;99.90
25550;DHT22;13444;50.562;7.262;2023-03-01T07:22:20;-4.10;99.90
25550;DHT22;13444;50.562;7.262;2023-03-01T07:24:45;-4.10;99.90
25550;DHT22;13444;50.562;7.262;2023-03-01T07:27:11;-4.00;99.90
25550;DHT22;13444;50.562;7.262;2023-03-01T07:29:36;-3.90;99.90
25550;DHT22;13444;50.562;7.262;2023-03-01T07:32:03;-3.90;99.90
25550;DHT22;13444;50.562;7.262;2023-03-01T07:34:29;-3.80;99.90
25550;DHT22;13444;50.562;7.262;2023-03-01T07:36:54;-3.70;99.90
25550;DHT22;13444;50.562;7.262;2023-03-01T07:39:20;-3.60;99.90
25550;DHT22;13444;50.562;7.262;2023-03-01T07:41:48;-3.40;99.90
25550;DHT22;13444;50.562;7.262;2023-03-01T07:44:14;-3.30;99.90
25550;DHT22;13444;50.562;7.262;2023-03-01T07:46:40;-3.10;99.90
25550;DHT22;13444;50.562;7.262;2023-03-01T07:49:06;-3.00;99.90
25550;DHT22;13444;50.562;7.262;2023-03-01T07:51:31;-2.80;99.90
25550;DHT22;13444;50.562;7.262;2023-03-01T07:53:57;-2.70;99.90
25550;DHT22;13444;50.562;7.262;2023-03-01T07:56:22;-2.60;99.90
25550;DHT22;13444;50.562;7.262;2023-03-01T07:58:48;-2.40;99.90
25550;DHT22;13444;50.562;7.262;2023-03-01T08:01:16;-2.30;99.90
25550;DHT22;13444;50.562;7.262;2023-03-01T08:03:41;-2.10;99.90
25550;DHT22;13444;50.562;7.262;2023-03-01T08:06:09;-1.90;99.90
25550;DHT22;13444;50.562;7.262;2023-03-01T08:08:35;-1.80;99.90
25550;DHT22;13444;50.562;7.262;2023-03-01T08:11:03;-1.60;99.90
25550;DHT22;13444;50.562;7.262;2023-03-01T08:13:30;-1.50;99.90
25550;DHT22;13444;50.562;7.262;2023-03-01T08:16:01;-1.40;99.90
25550;DHT22;13444;50.562;7.262;2023-03-01T08:18:27;-1.20;99.90
25550;DHT22;13444;50.562;7.262;2023-03-01T08:20:52;-1.10;99.90
25550;DHT22;13444;50.562;7.262;2023-03-01T08:23:18;-1.00;99.90
25550;DHT22;13444;50.562;7.262;2023-03-01T08:25:43;-0.90;99.90
25550;DHT22;13444;50.562;7.262;2023-03-01T08:28:09;-0.80;99.90
25550;DHT22;13444;50.562;7.262;2023-03-01T08:30:34;-0.70;99.90
25550;DHT22;13444;50.562;7.262;2023-03-01T08:33:00;-0.50;99.90
25550;DHT22;13444;50.562;7.262;2023-03-01T08:35:26;-0.30;99.90
25550;DHT22;13444;50.562;7.262;2023-03-01T08:37:51;0.10;99.90
25550;DHT22;13444;50.562;7.262;2023-03-01T08:40:17;0.40;99.90
25550;DHT22;13444;50.562;7.262;2023-03-01T08:42:43;0.70;99.90
25550;DHT22;13444;50.562;7.262;2023-03-01T08:45:10;0.70;99.90
25550;DHT22;13444;50.562;7.262;2023-03-01T08:47:35;0.70;99.90
25550;DHT22;13444;50.562;7.262;2023-03-01T08:50:01;0.80;99.90
25550;DHT22;13444;50.562;7.262;2023-03-01T08:52:27;1.10;99.90
25550;DHT22;13444;50.562;7.262;2023-03-01T08:54:53;1.50;99.90
25550;DHT22;13444;50.562;7.262;2023-03-01T08:57:18;2.10;99.90
25550;DHT22;13444;50.562;7.262;2023-03-01T08:59:44;2.70;99.90
25550;DHT22;13444;50.562;7.262;2023-03-01T09:02:13;3.30;99.90
25550;DHT22;13444;50.562;7.262;2023-03-01T09:04:39;3.90;99.90
25550;DHT22;13444;50.562;7.262;2023-03-01T09:07:04;4.50;99.90
25550;DHT22;13444;50.562;7.262;2023-03-01T09:09:30;5.20;99.90
25550;DHT22;13444;50.562;7.262;2023-03-01T09:11:56;5.70;99.90
25550;DHT22;13444;50.562;7.262;2023-03-01T09:14:21;6.20;99.90
25550;DHT22;13444;50.562;7.262;2023-03-01T09:16:47;6.70;99.90
25550;DHT22;13444;50.562;7.262;2023-03-01T09:19:12;7.00;99.90
25550;DHT22;13444;50.562;7.262;2023-03-01T09:21:38;7.10;99.90
25550;DHT22;13444;50.562;7.262;2023-03-01T09:24:04;7.30;99.90
25550;DHT22;13444;50.562;7.262;2023-03-01T09:26:29;7.30;99.90
25550;DHT22;13444;50.562;7.262;2023-03-01T09:28:56;7.50;99.90
25550;DHT22;13444;50.562;7.262;2023-03-01T09:31:23;7.80;99.90
25550;DHT22;13444;50.562;7.262;2023-03-01T09:33:51;8.30;99.90
25550;DHT22;13444;50.562;7.262;2023-03-01T09:36:19;8.70;99.90
25550;DHT22;13444;50.562;7.262;2023-03-01T09:38:46;8.90;99.90
25550;DHT22;13444;50.562;7.262;2023-03-01T09:44:18;9.10;99.90
25550;DHT22;13444;50.562;7.262;2023-03-01T09:46:45;9.30;99.90
25550;DHT22;13444;50.562;7.262;2023-03-01T09:49:23;9.60;99.90
25550;DHT22;13444;50.562;7.262;2023-03-01T09:52:29;9.80;99.90
25550;DHT22;13444;50.562;7.262;2023-03-01T09:54:47;10.20;99.90
25550;DHT22;13444;50.562;7.262;2023-03-01T09:57:36;10.50;99.90
25550;DHT22;13444;50.562;7.262;2023-03-01T10:02:46;10.80;99.90
25550;DHT22;13444;50.562;7.262;2023-03-01T10:05:37;11.10;99.90
25550;DHT22;13444;50.562;7.262;2023-03-01T10:08:27;11.40;99.90
25550;DHT22;13444;50.562;7.262;2023-03-01T10:10:52;11.80;99.90
25550;DHT22;13444;50.562;7.262;2023-03-01T10:13:46;11.90;99.90
25550;DHT22;13444;50.562;7.262;2023-03-01T10:16:26;11.50;99.90
25550;DHT22;13444;50.562;7.262;2023-03-01T10:18:58;11.50;99.90
25550;DHT22;13444;50.562;7.262;2023-03-01T10:21:27;11.80;99.90
25550;DHT22;13444;50.562;7.262;2023-03-01T10:23:53;12.20;99.90
25550;DHT22;13444;50.562;7.262;2023-03-01T10:29:05;12.60;99.90
25550;DHT22;13444;50.562;7.262;2023-03-01T10:31:50;13.00;99.90
25550;DHT22;13444;50.562;7.262;2023-03-01T10:34:25;13.00;99.90
25550;DHT22;13444;50.562;7.262;2023-03-01T10:36:56;12.80;99.90
25550;DHT22;13444;50.562;7.262;2023-03-01T10:39:24;12.80;99.90
25550;DHT22;13444;50.562;7.262;2023-03-01T10:41:57;13.20;99.90
25550;DHT22;13444;50.562;7.262;2023-03-01T10:44:47;13.50;99.90
25550;DHT22;13444;50.562;7.262;2023-03-01T10:47:39;13.80;99.90
25550;DHT22;13444;50.562;7.262;2023-03-01T10:50:17;14.10;99.90
25550;DHT22;13444;50.562;7.262;2023-03-01T10:52:59;14.30;99.90
25550;DHT22;13444;50.562;7.262;2023-03-01T10:55:35;14.20;99.90
25550;DHT22;13444;50.562;7.262;2023-03-01T10:58:21;13.80;99.90
25550;DHT22;13444;50.562;7.262;2023-03-01T11:01:00;14.00;99.90
25550;DHT22;13444;50.562;7.262;2023-03-01T11:03:32;13.60;99.90
25550;DHT22;13444;50.562;7.262;2023-03-01T11:08:47;13.70;99.90
25550;DHT22;13444;50.562;7.262;2023-03-01T11:11:14;13.90;99.90
25550;DHT22;13444;50.562;7.262;2023-03-01T11:13:52;14.00;99.90
25550;DHT22;13444;50.562;7.262;2023-03-01T11:16:24;14.20;99.90
25550;DHT22;13444;50.562;7.262;2023-03-01T11:19:01;14.20;99.90
25550;DHT22;13444;50.562;7.262;2023-03-01T11:21:31;14.40;99.90
25550;DHT22;13444;50.562;7.262;2023-03-01T11:24:00;14.50;99.90
25550;DHT22;13444;50.562;7.262;2023-03-01T11:26:27;14.50;99.90
25550;DHT22;13444;50.562;7.262;2023-03-01T11:28:56;14.70;99.90
25550;DHT22;13444;50.562;7.262;2023-03-01T11:31:24;13.40;99.90
25550;DHT22;13444;50.562;7.262;2023-03-01T11:34:20;13.00;99.90
25550;DHT22;13444;50.562;7.262;2023-03-01T11:36:54;13.10;99.90
25550;DHT22;13444;50.562;7.262;2023-03-01T11:39:37;13.30;99.90
25550;DHT22;13444;50.562;7.262;2023-03-01T11:42:25;13.30;99.90
25550;DHT22;13444;50.562;7.262;2023-03-01T11:44:58;13.30;99.90
25550;DHT22;13444;50.562;7.262;2023-03-01T11:47:38;12.70;99.90
25550;DHT22;13444;50.562;7.262;2023-03-01T11:50:15;12.70;99.90
25550;DHT22;13444;50.562;7.262;2023-03-01T12:01:08;12.60;99.90
25550;DHT22;13444;50.562;7.262;2023-03-01T12:06:35;12.60;99.90
25550;DHT22;13444;50.562;7.262;2023-03-01T12:12:24;12.00;99.90
25550;DHT22;13444;50.562;7.262;2023-03-01T12:26:31;11.60;99.90
25550;DHT22;13444;50.562;7.262;2023-03-01T12:31:51;12.10;99.90
25550;DHT22;13444;50.562;7.262;2023-03-01T12:34:48;12.00;99.90
25550;DHT22;13444;50.562;7.262;2023-03-01T12:37:29;11.90;99.90
25550;DHT22;13444;50.562;7.262;2023-03-01T12:40:16;11.70;99.90
25550;DHT22;13444;50.562;7.262;2023-03-01T12:51:07;12.00;99.90
25550;DHT22;13444;50.562;7.262;2023-03-01T12:53:39;12.00;99.90
25550;DHT22;13444;50.562;7.262;2023-03-01T12:56:10;11.60;99.90
25550;DHT22;13444;50.562;7.262;2023-03-01T12:59:01;11.20;99.90
25550;DHT22;13444;50.562;7.262;2023-03-01T13:01:49;10.90;99.90
25550;DHT22;13444;50.562;7.262;2023-03-01T13:04:24;11.30;99.90
25550;DHT22;13444;50.562;7.262;2023-03-01T13:10:26;11.50;99.90
25550;DHT22;13444;50.562;7.262;2023-03-01T13:20:30;10.70;99.90
25550;DHT22;13444;50.562;7.262;2023-03-01T13:28:36;10.40;99.90
25550;DHT22;13444;50.562;7.262;2023-03-01T13:31:05;10.40;99.90
25550;DHT22;13444;50.562;7.262;2023-03-01T13:36:00;10.40;99.90
25550;DHT22;13444;50.562;7.262;2023-03-01T13:46:50;9.80;99.90
25550;DHT22;13444;50.562;7.262;2023-03-01T13:49:19;9.80;99.90
25550;DHT22;13444;50.562;7.262;2023-03-01T13:51:49;9.70;99.90
25550;DHT22;13444;50.562;7.262;2023-03-01T13:54:18;9.60;99.90
25550;DHT22;13444;50.562;7.262;2023-03-01T13:56:45;9.70;99.90
25550;DHT22;13444;50.562;7.262;2023-03-01T13:59:16;9.50;99.90
25550;DHT22;13444;50.562;7.262;2023-03-01T14:01:41;9.50;99.90
25550;DHT22;13444;50.562;7.262;2023-03-01T14:04:28;9.40;99.90
25550;DHT22;13444;50.562;7.262;2023-03-01T14:07:21;9.40;99.90
25550;DHT22;13444;50.562;7.262;2023-03-01T14:09:52;9.50;99.90
25550;DHT22;13444;50.562;7.262;2023-03-01T14:12:23;9.70;99.90
25550;DHT22;13444;50.562;7.262;2023-03-01T14:15:01;9.80;99.90
25550;DHT22;13444;50.562;7.262;2023-03-01T14:17:40;9.80;99.90
25550;DHT22;13444;50.562;7.262;2023-03-01T14:20:27;9.90;99.90
25550;DHT22;13444;50.562;7.262;2023-03-01T14:22:58;9.80;99.90
25550;DHT22;13444;50.562;7.262;2023-03-01T14:25:33;9.70;99.90
25550;DHT22;13444;50.562;7.262;2023-03-01T14:28:16;9.70;99.90
25550;DHT22;13444;50.562;7.262;2023-03-01T14:30:47;9.70;99.90
25550;DHT22;13444;50.562;7.262;2023-03-01T14:33:31;9.60;99.90
25550;DHT22;13444;50.562;7.262;2023-03-01T14:41:03;9.60;99.90
25550;DHT22;13444;50.562;7.262;2023-03-01T14:43:29;9.60;99.90
25550;DHT22;13444;50.562;7.262;2023-03-01T14:45:56;9.60;99.90
25550;DHT22;13444;50.562;7.262;2023-03-01T14:48:22;9.50;99.90
25550;DHT22;13444;50.562;7.262;2023-03-01T14:50:48;9.50;99.90
25550;DHT22;13444;50.562;7.262;2023-03-01T14:53:26;9.50;99.90
25550;DHT22;13444;50.562;7.262;2023-03-01T14:55:59;9.50;99.90
25550;DHT22;13444;50.562;7.262;2023-03-01T14:58:27;9.40;99.90
25550;DHT22;13444;50.562;7.262;2023-03-01T15:00:59;9.40;99.90
25550;DHT22;13444;50.562;7.262;2023-03-01T15:05:57;9.40;99.90
25550;DHT22;13444;50.562;7.262;2023-03-01T15:08:24;9.40;99.90
25550;DHT22;13444;50.562;7.262;2023-03-01T15:11:28;9.30;99.90
25550;DHT22;13444;50.562;7.262;2023-03-01T15:13:54;9.30;99.70
25550;DHT22;13444;50.562;7.262;2023-03-01T15:16:28;9.20;99.90
25550;DHT22;13444;50.562;7.262;2023-03-01T15:19:05;9.20;99.90
25550;DHT22;13444;50.562;7.262;2023-03-01T15:21:36;9.30;99.90
25550;DHT22;13444;50.562;7.262;2023-03-01T15:26:54;9.20;99.90
25550;DHT22;13444;50.562;7.262;2023-03-01T15:29:25;9.20;99.90
25550;DHT22;13444;50.562;7.262;2023-03-01T15:32:00;9.20;99.90
25550;DHT22;13444;50.562;7.262;2023-03-01T15:34:29;9.30;99.90
25550;DHT22;13444;50.562;7.262;2023-03-01T15:36:57;9.30;99.90
25550;DHT22;13444;50.562;7.262;2023-03-01T15:39:57;9.20;99.50
25550;DHT22;13444;50.562;7.262;2023-03-01T15:45:21;9.20;99.90
25550;DHT22;13444;50.562;7.262;2023-03-01T15:47:55;9.30;99.30
25550;DHT22;13444;50.562;7.262;2023-03-01T15:50:28;9.30;99.50
25550;DHT22;13444;50.562;7.262;2023-03-01T15:52:55;9.30;99.50
25550;DHT22;13444;50.562;7.262;2023-03-01T15:55:22;9.30;99.90
25550;DHT22;13444;50.562;7.262;2023-03-01T15:57:49;9.30;99.20
25550;DHT22;13444;50.562;7.262;2023-03-01T16:00:16;9.20;99.20
25550;DHT22;13444;50.562;7.262;2023-03-01T16:02:43;9.20;99.20
25550;DHT22;13444;50.562;7.262;2023-03-01T16:05:18;9.20;99.10
25550;DHT22;13444;50.562;7.262;2023-03-01T16:07:44;9.20;99.50
25550;DHT22;13444;50.562;7.262;2023-03-01T16:10:10;9.20;99.50
25550;DHT22;13444;50.562;7.262;2023-03-01T16:12:35;9.20;99.20
25550;DHT22;13444;50.562;7.262;2023-03-01T16:15:01;9.10;98.80
25550;DHT22;13444;50.562;7.262;2023-03-01T16:17:26;9.10;99.00
25550;DHT22;13444;50.562;7.262;2023-03-01T16:19:52;9.00;98.90
25550;DHT22;13444;50.562;7.262;2023-03-01T16:22:17;9.00;99.20
25550;DHT22;13444;50.562;7.262;2023-03-01T16:24:46;9.00;99.10
25550;DHT22;13444;50.562;7.262;2023-03-01T16:28:20;8.90;99.50
25550;DHT22;13444;50.562;7.262;2023-03-01T16:30:47;8.90;99.80
25550;DHT22;13444;50.562;7.262;2023-03-01T16:33:13;8.90;99.90
25550;DHT22;13444;50.562;7.262;2023-03-01T16:35:40;8.80;99.90
25550;DHT22;13444;50.562;7.262;2023-03-01T16:38:06;8.90;99.70
25550;DHT22;13444;50.562;7.262;2023-03-01T16:40:31;8.70;99.90
25550;DHT22;13444;50.562;7.262;2023-03-01T16:42:57;8.80;99.90
25550;DHT22;13444;50.562;7.262;2023-03-01T16:45:35;8.70;99.90
25550;DHT22;13444;50.562;7.262;2023-03-01T16:48:02;8.70;99.90
25550;DHT22;13444;50.562;7.262;2023-03-01T16:50:27;8.60;99.90
25550;DHT22;13444;50.562;7.262;2023-03-01T16:52:53;8.50;99.90
25550;DHT22;13444;50.562;7.262;2023-03-01T16:55:19;8.50;99.90
25550;DHT22;13444;50.562;7.262;2023-03-01T16:57:44;8.50;99.90
25550;DHT22;13444;50.562;7.262;2023-03-01T17:00:11;8.40;99.90
25550;DHT22;13444;50.562;7.262;2023-03-01T17:02:38;8.40;99.90
25550;DHT22;13444;50.562;7.262;2023-03-01T17:05:04;8.30;99.90
25550;DHT22;13444;50.562;7.262;2023-03-01T17:07:31;8.30;99.90
25550;DHT22;13444;50.562;7.262;2023-03-01T17:09:59;8.30;99.90
25550;DHT22;13444;50.562;7.262;2023-03-01T17:12:25;8.20;99.90
25550;DHT22;13444;50.562;7.262;2023-03-01T17:14:50;8.10;99.90
25550;DHT22;13444;50.562;7.262;2023-03-01T17:17:16;8.00;99.90
25550;DHT22;13444;50.562;7.262;2023-03-01T17:19:41;7.90;99.90
25550;DHT22;13444;50.562;7.262;2023-03-01T17:22:12;7.90;99.90
25550;DHT22;13444;50.562;7.262;2023-03-01T17:24:42;7.80;99.90
25550;DHT22;13444;50.562;7.262;2023-03-01T17:27:08;7.80;99.90
25550;DHT22;13444;50.562;7.262;2023-03-01T17:29:34;7.70;99.90